sensor_id;sensor_type;location;lat;lon;timestamp;P1;durP1;ratioP1;P2;durP2;ratioP2
71343;SDS011;59146;43.850;25.948;2023-04-25T00:01:20;7.53;;;5.90;;
71343;SDS011;59146;43.850;25.948;2023-04-25T00:03:47;12.05;;;6.43;;
71343;SDS011;59146;43.850;25.948;2023-04-25T00:06:12;9.30;;;5.97;;
71343;SDS011;59146;43.850;25.948;2023-04-25T00:08:38;7.93;;;7.10;;
71343;SDS011;59146;43.850;25.948;2023-04-25T00:11:04;14.52;;;7.70;;
71343;SDS011;59146;43.850;25.948;2023-04-25T00:13:30;10.13;;;7.43;;
71343;SDS011;59146;43.850;25.948;2023-04-25T00:15:55;11.57;;;6.20;;
71343;SDS011;59146;43.850;25.948;2023-04-25T00:18:25;7.25;;;5.88;;
71343;SDS011;59146;43.850;25.948;2023-04-25T00:20:53;5.22;;;4.75;;
71343;SDS011;59146;43.850;25.948;2023-04-25T00:23:19;5.95;;;5.35;;
71343;SDS011;59146;43.850;25.948;2023-04-25T00:25:44;6.07;;;5.03;;
71343;SDS011;59146;43.850;25.948;2023-04-25T00:28:11;7.88;;;5.50;;
71343;SDS011;59146;43.850;25.948;2023-04-25T00:30:38;7.88;;;5.68;;
71343;SDS011;59146;43.850;25.948;2023-04-25T00:33:04;6.22;;;5.13;;
71343;SDS011;59146;43.850;25.948;2023-04-25T00:35:33;7.53;;;5.60;;
71343;SDS011;59146;43.850;25.948;2023-04-25T00:37:59;6.53;;;5.00;;
71343;SDS011;59146;43.850;25.948;2023-04-25T00:40:24;6.40;;;5.00;;
71343;SDS011;59146;43.850;25.948;2023-04-25T00:42:51;6.20;;;5.25;;
71343;SDS011;59146;43.850;25.948;2023-04-25T00:45:18;8.60;;;5.00;;
71343;SDS011;59146;43.850;25.948;2023-04-25T00:47:44;10.18;;;6.10;;
71343;SDS011;59146;43.850;25.948;2023-04-25T00:50:10;9.90;;;5.88;;
71343;SDS011;59146;43.850;25.948;2023-04-25T00:52:40;7.20;;;5.82;;
71343;SDS011;59146;43.850;25.948;2023-04-25T00:55:08;8.20;;;6.05;;
71343;SDS011;59146;43.850;25.948;2023-04-25T00:57:34;13.95;;;6.78;;
71343;SDS011;59146;43.850;25.948;2023-04-25T01:00:00;10.55;;;6.95;;
71343;SDS011;59146;43.850;25.948;2023-04-25T01:02:26;14.48;;;7.80;;
71343;SDS011;59146;43.850;25.948;2023-04-25T01:04:52;12.77;;;7.30;;
71343;SDS011;59146;43.850;25.948;2023-04-25T01:07:17;10.10;;;6.70;;
71343;SDS011;59146;43.850;25.948;2023-04-25T01:09:43;8.73;;;6.18;;
71343;SDS011;59146;43.850;25.948;2023-04-25T01:12:09;9.60;;;6.22;;
71343;SDS011;59146;43.850;25.948;2023-04-25T01:14:34;10.07;;;7.13;;
71343;SDS011;59146;43.850;25.948;2023-04-25T01:17:00;8.52;;;6.97;;
71343;SDS011;59146;43.850;25.948;2023-04-25T01:19:26;8.90;;;6.75;;
71343;SDS011;59146;43.850;25.948;2023-04-25T01:21:52;9.68;;;7.32;;
71343;SDS011;59146;43.850;25.948;2023-04-25T01:24:17;11.15;;;7.15;;
71343;SDS011;59146;43.850;25.948;2023-04-25T01:26:43;9.05;;;6.90;;
71343;SDS011;59146;43.850;25.948;2023-04-25T01:29:14;9.48;;;6.80;;
71343;SDS011;59146;43.850;25.948;2023-04-25T01:31:43;8.05;;;7.25;;
71343;SDS011;59146;43.850;25.948;2023-04-25T01:34:09;8.13;;;7.30;;
71343;SDS011;59146;43.850;25.948;2023-04-25T01:36:35;7.63;;;6.80;;
71343;SDS011;59146;43.850;25.948;2023-04-25T01:39:01;9.38;;;7.03;;
71343;SDS011;59146;43.850;25.948;2023-04-25T01:41:27;7.35;;;6.65;;
71343;SDS011;59146;43.850;25.948;2023-04-25T01:43:52;10.63;;;6.50;;
71343;SDS011;59146;43.850;25.948;2023-04-25T01:46:18;8.50;;;6.95;;
71343;SDS011;59146;43.850;25.948;2023-04-25T01:48:44;7.60;;;6.60;;
71343;SDS011;59146;43.850;25.948;2023-04-25T01:51:09;8.77;;;6.40;;
71343;SDS011;59146;43.850;25.948;2023-04-25T01:53:36;7.53;;;6.60;;
71343;SDS011;59146;43.850;25.948;2023-04-25T01:56:02;8.45;;;6.50;;
71343;SDS011;59146;43.850;25.948;2023-04-25T01:58:28;11.27;;;6.80;;
71343;SDS011;59146;43.850;25.948;2023-04-25T02:00:53;7.65;;;6.40;;
71343;SDS011;59146;43.850;25.948;2023-04-25T02:03:18;9.90;;;6.60;;
71343;SDS011;59146;43.850;25.948;2023-04-25T02:05:44;10.13;;;7.00;;
71343;SDS011;59146;43.850;25.948;2023-04-25T02:08:09;7.55;;;6.75;;
71343;SDS011;59146;43.850;25.948;2023-04-25T02:10:35;9.38;;;6.43;;
71343;SDS011;59146;43.850;25.948;2023-04-25T02:13:01;8.00;;;7.18;;
71343;SDS011;59146;43.850;25.948;2023-04-25T02:15:26;10.15;;;6.60;;
71343;SDS011;59146;43.850;25.948;2023-04-25T02:17:52;7.32;;;6.60;;
71343;SDS011;59146;43.850;25.948;2023-04-25T02:20:18;10.23;;;7.30;;
71343;SDS011;59146;43.850;25.948;2023-04-25T02:22:45;12.70;;;7.50;;
71343;SDS011;59146;43.850;25.948;2023-04-25T02:25:10;9.95;;;7.68;;
71343;SDS011;59146;43.850;25.948;2023-04-25T02:27:36;13.70;;;8.40;;
71343;SDS011;59146;43.850;25.948;2023-04-25T02:30:02;14.82;;;8.02;;
71343;SDS011;59146;43.850;25.948;2023-04-25T02:32:28;14.65;;;8.00;;
71343;SDS011;59146;43.850;25.948;2023-04-25T02:34:53;10.43;;;8.13;;
71343;SDS011;59146;43.850;25.948;2023-04-25T02:37:19;11.90;;;8.20;;
71343;SDS011;59146;43.850;25.948;2023-04-25T02:39:44;11.70;;;8.90;;
71343;SDS011;59146;43.850;25.948;2023-04-25T02:42:10;13.48;;;9.00;;
71343;SDS011;59146;43.850;25.948;2023-04-25T02:44:35;10.80;;;9.40;;
71343;SDS011;59146;43.850;25.948;2023-04-25T02:47:01;11.05;;;8.88;;
71343;SDS011;59146;43.850;25.948;2023-04-25T02:49:26;10.77;;;8.13;;
71343;SDS011;59146;43.850;25.948;2023-04-25T02:51:52;8.68;;;7.63;;
71343;SDS011;59146;43.850;25.948;2023-04-25T02:54:17;10.35;;;7.78;;
71343;SDS011;59146;43.850;25.948;2023-04-25T02:56:42;10.90;;;8.20;;
71343;SDS011;59146;43.850;25.948;2023-04-25T02:59:08;10.85;;;7.82;;
71343;SDS011;59146;43.850;25.948;2023-04-25T03:01:33;11.90;;;8.43;;
71343;SDS011;59146;43.850;25.948;2023-04-25T03:03:58;12.55;;;8.82;;
71343;SDS011;59146;43.850;25.948;2023-04-25T03:06:24;13.27;;;8.95;;
71343;SDS011;59146;43.850;25.948;2023-04-25T03:08:49;11.13;;;8.07;;
71343;SDS011;59146;43.850;25.948;2023-04-25T03:11:15;12.95;;;8.65;;
71343;SDS011;59146;43.850;25.948;2023-04-25T03:13:40;12.88;;;8.77;;
71343;SDS011;59146;43.850;25.948;2023-04-25T03:16:05;15.30;;;9.07;;
71343;SDS011;59146;43.850;25.948;2023-04-25T03:18:31;10.43;;;8.68;;
71343;SDS011;59146;43.850;25.948;2023-04-25T03:20:56;14.50;;;9.02;;
71343;SDS011;59146;43.850;25.948;2023-04-25T03:23:22;11.55;;;8.98;;
71343;SDS011;59146;43.850;25.948;2023-04-25T03:25:47;12.40;;;8.45;;
71343;SDS011;59146;43.850;25.948;2023-04-25T03:28:13;22.55;;;8.50;;
71343;SDS011;59146;43.850;25.948;2023-04-25T03:30:38;13.77;;;8.15;;
71343;SDS011;59146;43.850;25.948;2023-04-25T03:33:04;16.25;;;9.07;;
71343;SDS011;59146;43.850;25.948;2023-04-25T03:35:29;19.25;;;10.55;;
71343;SDS011;59146;43.850;25.948;2023-04-25T03:37:55;13.00;;;9.48;;
71343;SDS011;59146;43.850;25.948;2023-04-25T03:40:20;9.00;;;7.95;;
71343;SDS011;59146;43.850;25.948;2023-04-25T03:42:46;11.93;;;8.80;;
71343;SDS011;59146;43.850;25.948;2023-04-25T03:45:11;11.32;;;9.48;;
71343;SDS011;59146;43.850;25.948;2023-04-25T03:47:36;13.55;;;9.73;;
71343;SDS011;59146;43.850;25.948;2023-04-25T03:50:02;18.77;;;10.20;;
71343;SDS011;59146;43.850;25.948;2023-04-25T03:52:28;9.88;;;8.60;;
71343;SDS011;59146;43.850;25.948;2023-04-25T03:54:53;9.70;;;8.23;;
71343;SDS011;59146;43.850;25.948;2023-04-25T03:57:19;14.70;;;9.82;;
71343;SDS011;59146;43.850;25.948;2023-04-25T03:59:44;23.15;;;10.70;;
71343;SDS011;59146;43.850;25.948;2023-04-25T04:02:09;22.10;;;9.25;;
71343;SDS011;59146;43.850;25.948;2023-04-25T04:04:35;13.90;;;8.93;;
71343;SDS011;59146;43.850;25.948;2023-04-25T04:07:01;19.58;;;10.35;;
71343;SDS011;59146;43.850;25.948;2023-04-25T04:09:27;15.25;;;10.15;;
71343;SDS011;59146;43.850;25.948;2023-04-25T04:11:52;14.23;;;9.63;;
71343;SDS011;59146;43.850;25.948;2023-04-25T04:14:18;15.55;;;9.75;;
71343;SDS011;59146;43.850;25.948;2023-04-25T04:16:43;12.13;;;9.10;;
71343;SDS011;59146;43.850;25.948;2023-04-25T04:19:09;15.35;;;9.82;;
71343;SDS011;59146;43.850;25.948;2023-04-25T04:21:35;25.70;;;9.43;;
71343;SDS011;59146;43.850;25.948;2023-04-25T04:24:01;19.15;;;10.30;;
71343;SDS011;59146;43.850;25.948;2023-04-25T04:26:26;12.68;;;9.55;;
71343;SDS011;59146;43.850;25.948;2023-04-25T04:28:52;22.65;;;10.88;;
71343;SDS011;59146;43.850;25.948;2023-04-25T04:31:22;14.90;;;9.57;;
71343;SDS011;59146;43.850;25.948;2023-04-25T04:33:48;24.88;;;10.70;;
71343;SDS011;59146;43.850;25.948;2023-04-25T04:36:14;25.10;;;11.52;;
71343;SDS011;59146;43.850;25.948;2023-04-25T04:38:40;32.35;;;11.48;;
71343;SDS011;59146;43.850;25.948;2023-04-25T04:41:07;19.95;;;10.23;;
71343;SDS011;59146;43.850;25.948;2023-04-25T04:43:33;34.95;;;10.57;;
71343;SDS011;59146;43.850;25.948;2023-04-25T04:46:00;22.95;;;10.48;;
71343;SDS011;59146;43.850;25.948;2023-04-25T04:48:26;18.80;;;10.13;;
71343;SDS011;59146;43.850;25.948;2023-04-25T04:50:51;21.98;;;10.75;;
71343;SDS011;59146;43.850;25.948;2023-04-25T04:53:17;16.70;;;8.70;;
71343;SDS011;59146;43.850;25.948;2023-04-25T04:55:42;12.50;;;8.88;;
71343;SDS011;59146;43.850;25.948;2023-04-25T04:58:08;23.10;;;9.63;;
71343;SDS011;59146;43.850;25.948;2023-04-25T05:00:33;58.17;;;35.95;;
71343;SDS011;59146;43.850;25.948;2023-04-25T05:02:59;37.20;;;26.58;;
71343;SDS011;59146;43.850;25.948;2023-04-25T05:05:24;19.80;;;15.20;;
71343;SDS011;59146;43.850;25.948;2023-04-25T05:07:50;20.33;;;13.63;;
71343;SDS011;59146;43.850;25.948;2023-04-25T05:10:16;10.43;;;9.20;;
71343;SDS011;59146;43.850;25.948;2023-04-25T05:12:42;16.70;;;8.00;;
71343;SDS011;59146;43.850;25.948;2023-04-25T05:15:08;11.57;;;10.38;;
71343;SDS011;59146;43.850;25.948;2023-04-25T05:17:33;13.43;;;9.60;;
71343;SDS011;59146;43.850;25.948;2023-04-25T05:19:59;15.38;;;9.98;;
71343;SDS011;59146;43.850;25.948;2023-04-25T05:22:24;16.52;;;10.43;;
71343;SDS011;59146;43.850;25.948;2023-04-25T05:24:50;16.95;;;10.95;;
71343;SDS011;59146;43.850;25.948;2023-04-25T05:27:17;13.70;;;9.73;;
71343;SDS011;59146;43.850;25.948;2023-04-25T05:29:43;10.13;;;8.90;;
71343;SDS011;59146;43.850;25.948;2023-04-25T05:32:09;15.23;;;9.68;;
71343;SDS011;59146;43.850;25.948;2023-04-25T05:34:34;15.93;;;8.38;;
71343;SDS011;59146;43.850;25.948;2023-04-25T05:37:00;15.00;;;9.48;;
71343;SDS011;59146;43.850;25.948;2023-04-25T05:39:26;17.35;;;10.52;;
71343;SDS011;59146;43.850;25.948;2023-04-25T05:41:51;17.83;;;9.65;;
71343;SDS011;59146;43.850;25.948;2023-04-25T05:44:17;13.43;;;9.77;;
71343;SDS011;59146;43.850;25.948;2023-04-25T05:46:42;18.25;;;10.48;;
71343;SDS011;59146;43.850;25.948;2023-04-25T05:49:08;19.50;;;10.15;;
71343;SDS011;59146;43.850;25.948;2023-04-25T05:51:33;12.02;;;9.65;;
71343;SDS011;59146;43.850;25.948;2023-04-25T05:53:59;16.98;;;9.80;;
71343;SDS011;59146;43.850;25.948;2023-04-25T05:56:24;15.90;;;9.60;;
71343;SDS011;59146;43.850;25.948;2023-04-25T05:58:50;16.48;;;9.68;;
71343;SDS011;59146;43.850;25.948;2023-04-25T06:01:16;22.08;;;10.02;;
71343;SDS011;59146;43.850;25.948;2023-04-25T06:03:41;16.40;;;10.65;;
71343;SDS011;59146;43.850;25.948;2023-04-25T06:06:10;15.05;;;9.98;;
71343;SDS011;59146;43.850;25.948;2023-04-25T06:08:36;16.45;;;10.73;;
71343;SDS011;59146;43.850;25.948;2023-04-25T06:11:02;16.77;;;10.45;;
71343;SDS011;59146;43.850;25.948;2023-04-25T06:13:28;23.48;;;11.07;;
71343;SDS011;59146;43.850;25.948;2023-04-25T06:15:53;18.30;;;11.75;;
71343;SDS011;59146;43.850;25.948;2023-04-25T06:18:19;23.42;;;13.23;;
71343;SDS011;59146;43.850;25.948;2023-04-25T06:20:44;27.23;;;12.15;;
71343;SDS011;59146;43.850;25.948;2023-04-25T06:23:10;17.48;;;11.40;;
71343;SDS011;59146;43.850;25.948;2023-04-25T06:25:35;18.60;;;12.25;;
71343;SDS011;59146;43.850;25.948;2023-04-25T06:28:00;20.60;;;13.35;;
71343;SDS011;59146;43.850;25.948;2023-04-25T06:30:26;20.00;;;13.75;;
71343;SDS011;59146;43.850;25.948;2023-04-25T06:32:52;19.23;;;12.65;;
71343;SDS011;59146;43.850;25.948;2023-04-25T06:35:18;21.75;;;13.45;;
71343;SDS011;59146;43.850;25.948;2023-04-25T06:37:44;21.02;;;12.38;;
71343;SDS011;59146;43.850;25.948;2023-04-25T06:40:09;23.52;;;13.27;;
71343;SDS011;59146;43.850;25.948;2023-04-25T06:42:35;31.02;;;14.95;;
71343;SDS011;59146;43.850;25.948;2023-04-25T06:45:01;16.83;;;13.48;;
71343;SDS011;59146;43.850;25.948;2023-04-25T06:47:27;22.83;;;14.98;;
71343;SDS011;59146;43.850;25.948;2023-04-25T06:49:52;23.52;;;14.77;;
71343;SDS011;59146;43.850;25.948;2023-04-25T06:52:17;21.20;;;15.45;;
71343;SDS011;59146;43.850;25.948;2023-04-25T06:54:43;25.42;;;15.23;;
71343;SDS011;59146;43.850;25.948;2023-04-25T06:57:09;24.45;;;17.48;;
71343;SDS011;59146;43.850;25.948;2023-04-25T06:59:35;34.78;;;17.88;;
71343;SDS011;59146;43.850;25.948;2023-04-25T07:02:00;30.92;;;19.55;;
71343;SDS011;59146;43.850;25.948;2023-04-25T07:04:25;30.92;;;19.05;;
71343;SDS011;59146;43.850;25.948;2023-04-25T07:06:51;28.80;;;18.35;;
71343;SDS011;59146;43.850;25.948;2023-04-25T07:09:16;26.38;;;19.35;;
71343;SDS011;59146;43.850;25.948;2023-04-25T07:11:42;22.13;;;17.85;;
71343;SDS011;59146;43.850;25.948;2023-04-25T07:14:07;26.73;;;17.38;;
71343;SDS011;59146;43.850;25.948;2023-04-25T07:16:32;25.60;;;17.05;;
71343;SDS011;59146;43.850;25.948;2023-04-25T07:18:58;22.65;;;18.05;;
71343;SDS011;59146;43.850;25.948;2023-04-25T07:21:24;28.42;;;16.80;;
71343;SDS011;59146;43.850;25.948;2023-04-25T07:23:50;22.23;;;16.17;;
71343;SDS011;59146;43.850;25.948;2023-04-25T07:26:16;22.60;;;17.95;;
71343;SDS011;59146;43.850;25.948;2023-04-25T07:28:41;22.13;;;18.00;;
71343;SDS011;59146;43.850;25.948;2023-04-25T07:31:07;33.97;;;19.75;;
71343;SDS011;59146;43.850;25.948;2023-04-25T07:33:33;26.33;;;17.55;;
71343;SDS011;59146;43.850;25.948;2023-04-25T07:35:58;29.50;;;18.80;;
71343;SDS011;59146;43.850;25.948;2023-04-25T07:38:24;27.95;;;19.48;;
71343;SDS011;59146;43.850;25.948;2023-04-25T07:40:50;30.05;;;18.35;;
71343;SDS011;59146;43.850;25.948;2023-04-25T07:43:15;31.58;;;18.73;;
71343;SDS011;59146;43.850;25.948;2023-04-25T07:45:45;34.10;;;20.02;;
71343;SDS011;59146;43.850;25.948;2023-04-25T07:48:11;25.92;;;19.55;;
71343;SDS011;59146;43.850;25.948;2023-04-25T07:50:41;35.42;;;19.90;;
71343;SDS011;59146;43.850;25.948;2023-04-25T07:53:06;28.73;;;20.05;;
71343;SDS011;59146;43.850;25.948;2023-04-25T07:55:32;26.70;;;17.83;;
71343;SDS011;59146;43.850;25.948;2023-04-25T07:57:57;21.48;;;14.98;;
71343;SDS011;59146;43.850;25.948;2023-04-25T08:00:22;19.40;;;13.70;;
71343;SDS011;59146;43.850;25.948;2023-04-25T08:02:48;21.27;;;15.05;;
71343;SDS011;59146;43.850;25.948;2023-04-25T08:05:13;19.33;;;14.80;;
71343;SDS011;59146;43.850;25.948;2023-04-25T08:07:40;18.58;;;14.00;;
71343;SDS011;59146;43.850;25.948;2023-04-25T08:10:06;19.48;;;13.90;;
71343;SDS011;59146;43.850;25.948;2023-04-25T08:12:33;20.35;;;12.85;;
71343;SDS011;59146;43.850;25.948;2023-04-25T08:14:58;20.30;;;11.38;;
71343;SDS011;59146;43.850;25.948;2023-04-25T08:17:23;17.88;;;12.02;;
71343;SDS011;59146;43.850;25.948;2023-04-25T08:19:49;18.52;;;12.32;;
71343;SDS011;59146;43.850;25.948;2023-04-25T08:22:14;17.10;;;14.30;;
71343;SDS011;59146;43.850;25.948;2023-04-25T08:24:40;17.85;;;13.07;;
71343;SDS011;59146;43.850;25.948;2023-04-25T08:27:06;23.02;;;14.43;;
71343;SDS011;59146;43.850;25.948;2023-04-25T08:29:32;13.63;;;12.07;;
71343;SDS011;59146;43.850;25.948;2023-04-25T08:31:58;16.67;;;12.77;;
71343;SDS011;59146;43.850;25.948;2023-04-25T08:34:24;18.15;;;13.43;;
71343;SDS011;59146;43.850;25.948;2023-04-25T08:36:50;17.05;;;11.88;;
71343;SDS011;59146;43.850;25.948;2023-04-25T08:39:16;18.15;;;11.65;;
71343;SDS011;59146;43.850;25.948;2023-04-25T08:41:41;18.38;;;12.30;;
71343;SDS011;59146;43.850;25.948;2023-04-25T08:44:08;18.00;;;12.63;;
71343;SDS011;59146;43.850;25.948;2023-04-25T08:46:37;25.20;;;12.80;;
71343;SDS011;59146;43.850;25.948;2023-04-25T08:49:03;15.20;;;13.00;;
71343;SDS011;59146;43.850;25.948;2023-04-25T08:51:30;23.70;;;15.68;;
71343;SDS011;59146;43.850;25.948;2023-04-25T08:53:59;18.17;;;11.88;;
71343;SDS011;59146;43.850;25.948;2023-04-25T08:56:34;21.08;;;12.38;;
71343;SDS011;59146;43.850;25.948;2023-04-25T08:59:00;16.15;;;10.45;;
71343;SDS011;59146;43.850;25.948;2023-04-25T09:01:27;20.77;;;10.73;;
71343;SDS011;59146;43.850;25.948;2023-04-25T09:03:52;21.75;;;12.48;;
71343;SDS011;59146;43.850;25.948;2023-04-25T09:06:18;15.02;;;10.95;;
71343;SDS011;59146;43.850;25.948;2023-04-25T09:08:44;16.40;;;12.25;;
71343;SDS011;59146;43.850;25.948;2023-04-25T09:11:11;14.90;;;11.05;;
71343;SDS011;59146;43.850;25.948;2023-04-25T09:13:37;14.82;;;10.68;;
71343;SDS011;59146;43.850;25.948;2023-04-25T09:16:03;15.02;;;10.07;;
71343;SDS011;59146;43.850;25.948;2023-04-25T09:18:32;16.83;;;12.05;;
71343;SDS011;59146;43.850;25.948;2023-04-25T09:23:38;12.90;;;10.07;;
71343;SDS011;59146;43.850;25.948;2023-04-25T09:26:08;12.15;;;9.75;;
71343;SDS011;59146;43.850;25.948;2023-04-25T09:28:34;13.75;;;9.85;;
71343;SDS011;59146;43.850;25.948;2023-04-25T09:31:00;12.90;;;9.65;;
71343;SDS011;59146;43.850;25.948;2023-04-25T09:33:27;18.42;;;9.65;;
71343;SDS011;59146;43.850;25.948;2023-04-25T09:35:54;17.77;;;10.75;;
71343;SDS011;59146;43.850;25.948;2023-04-25T09:38:27;22.48;;;11.13;;
71343;SDS011;59146;43.850;25.948;2023-04-25T09:40:55;19.55;;;11.60;;
71343;SDS011;59146;43.850;25.948;2023-04-25T09:43:22;25.10;;;11.32;;
71343;SDS011;59146;43.850;25.948;2023-04-25T09:45:48;25.90;;;13.10;;
71343;SDS011;59146;43.850;25.948;2023-04-25T09:48:20;19.10;;;13.90;;
71343;SDS011;59146;43.850;25.948;2023-04-25T09:51:05;25.85;;;13.73;;
71343;SDS011;59146;43.850;25.948;2023-04-25T09:53:44;25.05;;;13.80;;
71343;SDS011;59146;43.850;25.948;2023-04-25T09:56:11;22.83;;;12.85;;
71343;SDS011;59146;43.850;25.948;2023-04-25T09:58:38;18.13;;;12.93;;
71343;SDS011;59146;43.850;25.948;2023-04-25T10:01:06;31.98;;;14.02;;
71343;SDS011;59146;43.850;25.948;2023-04-25T10:03:33;26.15;;;13.45;;
71343;SDS011;59146;43.850;25.948;2023-04-25T10:06:01;15.40;;;10.75;;
71343;SDS011;59146;43.850;25.948;2023-04-25T10:08:32;24.85;;;11.80;;
71343;SDS011;59146;43.850;25.948;2023-04-25T10:11:03;26.00;;;12.32;;
71343;SDS011;59146;43.850;25.948;2023-04-25T10:13:30;21.05;;;10.52;;
71343;SDS011;59146;43.850;25.948;2023-04-25T10:15:57;22.95;;;9.02;;
71343;SDS011;59146;43.850;25.948;2023-04-25T10:18:27;33.92;;;9.13;;
71343;SDS011;59146;43.850;25.948;2023-04-25T10:20:57;14.90;;;6.32;;
71343;SDS011;59146;43.850;25.948;2023-04-25T10:23:24;28.23;;;7.28;;
71343;SDS011;59146;43.850;25.948;2023-04-25T10:25:51;10.50;;;4.63;;
71343;SDS011;59146;43.850;25.948;2023-04-25T10:28:18;11.13;;;4.28;;
71343;SDS011;59146;43.850;25.948;2023-04-25T10:30:59;6.25;;;2.70;;
71343;SDS011;59146;43.850;25.948;2023-04-25T10:33:39;4.82;;;3.30;;
71343;SDS011;59146;43.850;25.948;2023-04-25T10:36:10;11.52;;;3.40;;
71343;SDS011;59146;43.850;25.948;2023-04-25T10:38:39;14.60;;;3.88;;
71343;SDS011;59146;43.850;25.948;2023-04-25T10:41:10;5.15;;;3.75;;
71343;SDS011;59146;43.850;25.948;2023-04-25T10:43:40;4.15;;;3.08;;
71343;SDS011;59146;43.850;25.948;2023-04-25T10:48:50;7.90;;;4.00;;
71343;SDS011;59146;43.850;25.948;2023-04-25T10:51:23;10.52;;;4.43;;
71343;SDS011;59146;43.850;25.948;2023-04-25T10:56:25;16.02;;;4.30;;
71343;SDS011;59146;43.850;25.948;2023-04-25T10:59:02;9.00;;;3.75;;
71343;SDS011;59146;43.850;25.948;2023-04-25T11:01:42;15.73;;;4.50;;
71343;SDS011;59146;43.850;25.948;2023-04-25T11:04:20;9.35;;;4.57;;
71343;SDS011;59146;43.850;25.948;2023-04-25T11:06:58;17.17;;;5.45;;
71343;SDS011;59146;43.850;25.948;2023-04-25T11:09:25;15.70;;;5.22;;
71343;SDS011;59146;43.850;25.948;2023-04-25T11:11:54;6.88;;;4.47;;
71343;SDS011;59146;43.850;25.948;2023-04-25T11:14:21;9.05;;;4.10;;
71343;SDS011;59146;43.850;25.948;2023-04-25T11:16:46;10.40;;;4.78;;
71343;SDS011;59146;43.850;25.948;2023-04-25T11:19:12;7.30;;;3.50;;
71343;SDS011;59146;43.850;25.948;2023-04-25T11:21:37;12.70;;;4.03;;
71343;SDS011;59146;43.850;25.948;2023-04-25T11:24:03;11.70;;;3.35;;
71343;SDS011;59146;43.850;25.948;2023-04-25T11:26:29;8.95;;;3.42;;
71343;SDS011;59146;43.850;25.948;2023-04-25T11:28:58;7.43;;;3.20;;
71343;SDS011;59146;43.850;25.948;2023-04-25T11:31:25;9.95;;;4.13;;
71343;SDS011;59146;43.850;25.948;2023-04-25T11:33:52;7.85;;;4.38;;
71343;SDS011;59146;43.850;25.948;2023-04-25T11:36:18;8.27;;;4.13;;
71343;SDS011;59146;43.850;25.948;2023-04-25T11:38:44;13.20;;;3.25;;
71343;SDS011;59146;43.850;25.948;2023-04-25T11:41:10;4.90;;;4.30;;
71343;SDS011;59146;43.850;25.948;2023-04-25T11:43:36;7.18;;;4.18;;
71343;SDS011;59146;43.850;25.948;2023-04-25T11:46:06;9.25;;;5.13;;
71343;SDS011;59146;43.850;25.948;2023-04-25T11:48:41;17.38;;;4.13;;
71343;SDS011;59146;43.850;25.948;2023-04-25T11:51:07;7.30;;;4.18;;
71343;SDS011;59146;43.850;25.948;2023-04-25T11:53:33;7.53;;;4.15;;
71343;SDS011;59146;43.850;25.948;2023-04-25T11:55:59;6.95;;;3.55;;
71343;SDS011;59146;43.850;25.948;2023-04-25T11:58:25;8.00;;;4.10;;
71343;SDS011;59146;43.850;25.948;2023-04-25T12:00:51;8.07;;;5.45;;
71343;SDS011;59146;43.850;25.948;2023-04-25T12:03:17;7.95;;;4.95;;
71343;SDS011;59146;43.850;25.948;2023-04-25T12:05:44;6.43;;;4.45;;
71343;SDS011;59146;43.850;25.948;2023-04-25T12:08:11;7.05;;;4.10;;
71343;SDS011;59146;43.850;25.948;2023-04-25T12:10:40;7.90;;;4.53;;
71343;SDS011;59146;43.850;25.948;2023-04-25T12:15:44;7.25;;;4.35;;
71343;SDS011;59146;43.850;25.948;2023-04-25T12:18:10;5.45;;;4.40;;
71343;SDS011;59146;43.850;25.948;2023-04-25T12:20:35;8.63;;;4.53;;
71343;SDS011;59146;43.850;25.948;2023-04-25T12:23:01;7.45;;;4.28;;
71343;SDS011;59146;43.850;25.948;2023-04-25T12:25:38;4.63;;;3.30;;
71343;SDS011;59146;43.850;25.948;2023-04-25T12:28:18;4.22;;;2.80;;
71343;SDS011;59146;43.850;25.948;2023-04-25T12:33:24;4.22;;;2.47;;
71343;SDS011;59146;43.850;25.948;2023-04-25T12:35:51;3.05;;;2.75;;
71343;SDS011;59146;43.850;25.948;2023-04-25T12:38:23;4.13;;;2.70;;
71343;SDS011;59146;43.850;25.948;2023-04-25T12:40:49;7.32;;;2.88;;
71343;SDS011;59146;43.850;25.948;2023-04-25T12:43:14;3.13;;;2.20;;
71343;SDS011;59146;43.850;25.948;2023-04-25T12:45:40;6.07;;;2.70;;
71343;SDS011;59146;43.850;25.948;2023-04-25T12:48:05;4.97;;;2.85;;
71343;SDS011;59146;43.850;25.948;2023-04-25T12:50:31;4.95;;;2.80;;
71343;SDS011;59146;43.850;25.948;2023-04-25T12:52:57;2.92;;;2.50;;
71343;SDS011;59146;43.850;25.948;2023-04-25T12:55:22;8.90;;;2.50;;
71343;SDS011;59146;43.850;25.948;2023-04-25T12:57:47;2.97;;;2.67;;
71343;SDS011;59146;43.850;25.948;2023-04-25T13:00:13;12.88;;;3.50;;
71343;SDS011;59146;43.850;25.948;2023-04-25T13:02:40;7.00;;;3.15;;
71343;SDS011;59146;43.850;25.948;2023-04-25T13:05:06;14.45;;;2.97;;
71343;SDS011;59146;43.850;25.948;2023-04-25T13:07:31;9.63;;;2.70;;
71343;SDS011;59146;43.850;25.948;2023-04-25T13:09:56;7.78;;;2.78;;
71343;SDS011;59146;43.850;25.948;2023-04-25T13:12:22;11.75;;;3.70;;
71343;SDS011;59146;43.850;25.948;2023-04-25T13:14:47;21.02;;;3.95;;
71343;SDS011;59146;43.850;25.948;2023-04-25T13:17:13;15.98;;;3.05;;
71343;SDS011;59146;43.850;25.948;2023-04-25T13:19:38;14.77;;;2.97;;
71343;SDS011;59146;43.850;25.948;2023-04-25T13:22:04;6.72;;;2.00;;
71343;SDS011;59146;43.850;25.948;2023-04-25T13:24:29;8.73;;;2.25;;
71343;SDS011;59146;43.850;25.948;2023-04-25T13:26:55;9.55;;;2.60;;
71343;SDS011;59146;43.850;25.948;2023-04-25T13:29:20;23.67;;;3.78;;
71343;SDS011;59146;43.850;25.948;2023-04-25T13:31:46;4.63;;;2.50;;
71343;SDS011;59146;43.850;25.948;2023-04-25T13:34:11;4.30;;;2.45;;
71343;SDS011;59146;43.850;25.948;2023-04-25T13:36:37;10.43;;;2.35;;
71343;SDS011;59146;43.850;25.948;2023-04-25T13:39:03;9.23;;;3.00;;
71343;SDS011;59146;43.850;25.948;2023-04-25T13:41:29;9.50;;;3.28;;
71343;SDS011;59146;43.850;25.948;2023-04-25T13:43:55;7.95;;;2.42;;
71343;SDS011;59146;43.850;25.948;2023-04-25T13:46:20;10.93;;;2.50;;
71343;SDS011;59146;43.850;25.948;2023-04-25T13:48:46;11.30;;;2.30;;
71343;SDS011;59146;43.850;25.948;2023-04-25T13:51:14;7.65;;;2.50;;
71343;SDS011;59146;43.850;25.948;2023-04-25T13:53:41;9.98;;;2.33;;
71343;SDS011;59146;43.850;25.948;2023-04-25T13:56:06;5.05;;;2.30;;
71343;SDS011;59146;43.850;25.948;2023-04-25T13:58:31;12.15;;;2.70;;
71343;SDS011;59146;43.850;25.948;2023-04-25T14:00:58;9.73;;;2.55;;
71343;SDS011;59146;43.850;25.948;2023-04-25T14:03:23;11.02;;;2.00;;
71343;SDS011;59146;43.850;25.948;2023-04-25T14:05:49;8.52;;;2.45;;
71343;SDS011;59146;43.850;25.948;2023-04-25T14:08:14;8.45;;;2.22;;
71343;SDS011;59146;43.850;25.948;2023-04-25T14:10:40;10.13;;;2.08;;
71343;SDS011;59146;43.850;25.948;2023-04-25T14:13:05;4.70;;;2.03;;
71343;SDS011;59146;43.850;25.948;2023-04-25T14:15:32;6.00;;;2.13;;
71343;SDS011;59146;43.850;25.948;2023-04-25T14:17:57;8.65;;;2.40;;
71343;SDS011;59146;43.850;25.948;2023-04-25T14:20:23;6.45;;;2.67;;
71343;SDS011;59146;43.850;25.948;2023-04-25T14:22:49;11.63;;;2.30;;
71343;SDS011;59146;43.850;25.948;2023-04-25T14:25:14;6.22;;;1.70;;
71343;SDS011;59146;43.850;25.948;2023-04-25T14:27:40;7.13;;;1.98;;
71343;SDS011;59146;43.850;25.948;2023-04-25T14:30:05;17.50;;;2.45;;